sensor_id;sensor_type;location;lat;lon;timestamp;P1;durP1;ratioP1;P2;durP2;ratioP2
46290;SDS011;32023;44.444;26.006;2023-03-29T00:01:31;9.02;;;5.03;;
46290;SDS011;32023;44.444;26.006;2023-03-29T00:03:58;9.68;;;5.50;;
46290;SDS011;32023;44.444;26.006;2023-03-29T00:09:15;9.25;;;5.07;;
46290;SDS011;32023;44.444;26.006;2023-03-29T00:11:44;12.65;;;5.30;;
46290;SDS011;32023;44.444;26.006;2023-03-29T00:14:11;8.43;;;5.28;;
46290;SDS011;32023;44.444;26.006;2023-03-29T00:16:38;7.35;;;4.55;;
46290;SDS011;32023;44.444;26.006;2023-03-29T00:19:05;13.45;;;5.28;;
46290;SDS011;32023;44.444;26.006;2023-03-29T00:21:35;6.65;;;4.90;;
46290;SDS011;32023;44.444;26.006;2023-03-29T00:24:02;7.47;;;4.68;;
46290;SDS011;32023;44.444;26.006;2023-03-29T00:26:34;7.57;;;4.28;;
46290;SDS011;32023;44.444;26.006;2023-03-29T00:29:02;7.38;;;4.00;;
46290;SDS011;32023;44.444;26.006;2023-03-29T00:31:28;6.53;;;4.53;;
46290;SDS011;32023;44.444;26.006;2023-03-29T00:33:55;10.48;;;4.70;;
46290;SDS011;32023;44.444;26.006;2023-03-29T00:36:22;5.88;;;4.07;;
46290;SDS011;32023;44.444;26.006;2023-03-29T00:39:02;7.15;;;4.30;;
46290;SDS011;32023;44.444;26.006;2023-03-29T00:41:28;10.10;;;4.50;;
46290;SDS011;32023;44.444;26.006;2023-03-29T00:47:03;6.03;;;4.07;;
46290;SDS011;32023;44.444;26.006;2023-03-29T00:49:29;6.15;;;4.30;;
46290;SDS011;32023;44.444;26.006;2023-03-29T00:51:56;8.63;;;4.97;;
46290;SDS011;32023;44.444;26.006;2023-03-29T00:54:38;10.63;;;4.85;;
46290;SDS011;32023;44.444;26.006;2023-03-29T01:02:22;10.50;;;5.70;;
46290;SDS011;32023;44.444;26.006;2023-03-29T01:04:57;9.63;;;5.50;;
46290;SDS011;32023;44.444;26.006;2023-03-29T01:10:11;12.10;;;7.32;;
46290;SDS011;32023;44.444;26.006;2023-03-29T01:12:44;11.50;;;6.93;;
46290;SDS011;32023;44.444;26.006;2023-03-29T01:15:14;13.43;;;6.47;;
46290;SDS011;32023;44.444;26.006;2023-03-29T01:17:44;12.40;;;7.25;;
46290;SDS011;32023;44.444;26.006;2023-03-29T01:29:19;12.63;;;6.82;;
46290;SDS011;32023;44.444;26.006;2023-03-29T01:32:01;9.90;;;6.85;;
46290;SDS011;32023;44.444;26.006;2023-03-29T01:34:53;18.00;;;7.75;;
46290;SDS011;32023;44.444;26.006;2023-03-29T01:37:27;12.07;;;7.78;;
46290;SDS011;32023;44.444;26.006;2023-03-29T01:39:59;12.02;;;8.27;;
46290;SDS011;32023;44.444;26.006;2023-03-29T01:45:47;13.45;;;8.65;;
46290;SDS011;32023;44.444;26.006;2023-03-29T01:54:17;12.93;;;8.55;;
46290;SDS011;32023;44.444;26.006;2023-03-29T01:57:07;13.82;;;7.88;;
46290;SDS011;32023;44.444;26.006;2023-03-29T01:59:37;13.70;;;7.68;;
46290;SDS011;32023;44.444;26.006;2023-03-29T02:02:15;11.70;;;7.10;;
46290;SDS011;32023;44.444;26.006;2023-03-29T02:04:45;12.13;;;7.80;;
46290;SDS011;32023;44.444;26.006;2023-03-29T02:07:20;11.48;;;7.22;;
46290;SDS011;32023;44.444;26.006;2023-03-29T02:09:50;13.10;;;7.47;;
46290;SDS011;32023;44.444;26.006;2023-03-29T02:12:17;11.23;;;7.78;;
46290;SDS011;32023;44.444;26.006;2023-03-29T02:14:44;15.00;;;8.43;;
46290;SDS011;32023;44.444;26.006;2023-03-29T02:17:15;13.82;;;7.78;;
46290;SDS011;32023;44.444;26.006;2023-03-29T02:25:20;19.20;;;9.48;;
46290;SDS011;32023;44.444;26.006;2023-03-29T02:27:48;18.55;;;10.50;;
46290;SDS011;32023;44.444;26.006;2023-03-29T02:30:16;19.67;;;10.20;;
46290;SDS011;32023;44.444;26.006;2023-03-29T02:32:52;17.95;;;9.65;;
46290;SDS011;32023;44.444;26.006;2023-03-29T02:35:55;17.00;;;9.00;;
46290;SDS011;32023;44.444;26.006;2023-03-29T02:38:18;19.25;;;9.90;;
46290;SDS011;32023;44.444;26.006;2023-03-29T02:40:49;19.02;;;9.43;;
46290;SDS011;32023;44.444;26.006;2023-03-29T02:43:17;14.55;;;8.20;;
46290;SDS011;32023;44.444;26.006;2023-03-29T02:45:45;15.07;;;8.55;;
46290;SDS011;32023;44.444;26.006;2023-03-29T02:48:13;19.45;;;8.57;;
46290;SDS011;32023;44.444;26.006;2023-03-29T02:50:43;11.90;;;7.95;;
46290;SDS011;32023;44.444;26.006;2023-03-29T02:53:17;14.57;;;7.90;;
46290;SDS011;32023;44.444;26.006;2023-03-29T02:55:47;20.95;;;9.15;;
46290;SDS011;32023;44.444;26.006;2023-03-29T02:58:15;36.47;;;11.90;;
46290;SDS011;32023;44.444;26.006;2023-03-29T03:03:16;30.63;;;12.30;;
46290;SDS011;32023;44.444;26.006;2023-03-29T03:05:43;25.35;;;11.40;;
46290;SDS011;32023;44.444;26.006;2023-03-29T03:10:45;24.27;;;10.32;;
46290;SDS011;32023;44.444;26.006;2023-03-29T03:13:14;23.67;;;9.52;;
46290;SDS011;32023;44.444;26.006;2023-03-29T03:15:40;24.65;;;8.40;;
46290;SDS011;32023;44.444;26.006;2023-03-29T03:18:15;23.27;;;8.07;;
46290;SDS011;32023;44.444;26.006;2023-03-29T03:20:56;15.45;;;7.82;;
46290;SDS011;32023;44.444;26.006;2023-03-29T03:23:26;15.38;;;7.55;;
46290;SDS011;32023;44.444;26.006;2023-03-29T03:25:56;23.95;;;6.93;;
46290;SDS011;32023;44.444;26.006;2023-03-29T03:28:38;12.90;;;7.25;;
46290;SDS011;32023;44.444;26.006;2023-03-29T03:36:24;12.68;;;5.38;;
46290;SDS011;32023;44.444;26.006;2023-03-29T03:44:04;15.50;;;6.00;;
46290;SDS011;32023;44.444;26.006;2023-03-29T03:49:02;10.60;;;5.50;;
46290;SDS011;32023;44.444;26.006;2023-03-29T03:56:54;17.40;;;6.47;;
46290;SDS011;32023;44.444;26.006;2023-03-29T04:02:19;14.65;;;5.63;;
46290;SDS011;32023;44.444;26.006;2023-03-29T04:12:37;14.52;;;6.13;;
46290;SDS011;32023;44.444;26.006;2023-03-29T04:30:34;18.20;;;7.05;;
46290;SDS011;32023;44.444;26.006;2023-03-29T04:33:03;13.75;;;6.45;;
46290;SDS011;32023;44.444;26.006;2023-03-29T04:35:30;21.02;;;6.70;;
46290;SDS011;32023;44.444;26.006;2023-03-29T04:37:57;18.08;;;7.38;;
46290;SDS011;32023;44.444;26.006;2023-03-29T04:40:31;15.60;;;5.75;;
46290;SDS011;32023;44.444;26.006;2023-03-29T04:42:57;11.30;;;4.43;;
46290;SDS011;32023;44.444;26.006;2023-03-29T04:45:36;6.43;;;3.88;;
46290;SDS011;32023;44.444;26.006;2023-03-29T04:48:04;9.07;;;4.10;;
46290;SDS011;32023;44.444;26.006;2023-03-29T04:50:36;6.90;;;3.47;;
46290;SDS011;32023;44.444;26.006;2023-03-29T04:53:05;8.07;;;4.15;;
46290;SDS011;32023;44.444;26.006;2023-03-29T04:58:02;8.90;;;3.85;;
46290;SDS011;32023;44.444;26.006;2023-03-29T05:00:29;8.63;;;3.97;;
46290;SDS011;32023;44.444;26.006;2023-03-29T05:02:55;8.75;;;3.85;;
46290;SDS011;32023;44.444;26.006;2023-03-29T05:05:22;10.15;;;3.60;;
46290;SDS011;32023;44.444;26.006;2023-03-29T05:07:57;11.38;;;3.88;;
46290;SDS011;32023;44.444;26.006;2023-03-29T05:14:03;10.05;;;4.03;;
46290;SDS011;32023;44.444;26.006;2023-03-29T05:16:35;6.63;;;3.60;;
46290;SDS011;32023;44.444;26.006;2023-03-29T05:19:02;10.10;;;4.22;;
46290;SDS011;32023;44.444;26.006;2023-03-29T05:21:31;11.68;;;4.70;;
46290;SDS011;32023;44.444;26.006;2023-03-29T05:23:58;11.43;;;4.70;;
46290;SDS011;32023;44.444;26.006;2023-03-29T05:26:27;8.38;;;4.00;;
46290;SDS011;32023;44.444;26.006;2023-03-29T05:28:57;10.25;;;4.40;;
46290;SDS011;32023;44.444;26.006;2023-03-29T05:31:24;12.25;;;4.32;;
46290;SDS011;32023;44.444;26.006;2023-03-29T05:33:53;9.85;;;4.38;;
46290;SDS011;32023;44.444;26.006;2023-03-29T05:36:20;11.15;;;3.72;;
46290;SDS011;32023;44.444;26.006;2023-03-29T05:38:47;8.50;;;4.07;;
46290;SDS011;32023;44.444;26.006;2023-03-29T05:41:13;9.75;;;3.85;;
46290;SDS011;32023;44.444;26.006;2023-03-29T05:46:13;8.73;;;3.65;;
46290;SDS011;32023;44.444;26.006;2023-03-29T05:48:39;5.03;;;3.55;;
46290;SDS011;32023;44.444;26.006;2023-03-29T05:51:06;10.35;;;3.65;;
46290;SDS011;32023;44.444;26.006;2023-03-29T05:53:33;8.82;;;3.53;;
46290;SDS011;32023;44.444;26.006;2023-03-29T05:56:00;10.38;;;3.83;;
46290;SDS011;32023;44.444;26.006;2023-03-29T05:58:29;7.47;;;3.53;;
46290;SDS011;32023;44.444;26.006;2023-03-29T06:00:56;11.05;;;4.03;;
46290;SDS011;32023;44.444;26.006;2023-03-29T06:03:31;7.13;;;3.28;;
46290;SDS011;32023;44.444;26.006;2023-03-29T06:16:13;15.18;;;3.45;;
46290;SDS011;32023;44.444;26.006;2023-03-29T06:22:47;5.28;;;2.35;;
46290;SDS011;32023;44.444;26.006;2023-03-29T06:25:25;7.53;;;3.25;;
46290;SDS011;32023;44.444;26.006;2023-03-29T06:48:52;3.83;;;2.17;;
46290;SDS011;32023;44.444;26.006;2023-03-29T06:51:31;3.58;;;2.10;;
46290;SDS011;32023;44.444;26.006;2023-03-29T06:54:08;3.35;;;2.78;;
46290;SDS011;32023;44.444;26.006;2023-03-29T06:56:48;3.08;;;2.20;;
46290;SDS011;32023;44.444;26.006;2023-03-29T06:59:25;4.95;;;2.22;;
46290;SDS011;32023;44.444;26.006;2023-03-29T07:02:26;7.32;;;2.30;;
46290;SDS011;32023;44.444;26.006;2023-03-29T07:05:07;3.88;;;2.00;;
46290;SDS011;32023;44.444;26.006;2023-03-29T07:07:39;6.80;;;2.03;;
46290;SDS011;32023;44.444;26.006;2023-03-29T07:10:39;3.35;;;1.90;;
46290;SDS011;32023;44.444;26.006;2023-03-29T07:13:08;5.75;;;2.60;;
46290;SDS011;32023;44.444;26.006;2023-03-29T07:15:39;5.15;;;2.50;;
46290;SDS011;32023;44.444;26.006;2023-03-29T07:18:12;7.00;;;2.60;;
46290;SDS011;32023;44.444;26.006;2023-03-29T07:20:53;3.50;;;2.35;;
46290;SDS011;32023;44.444;26.006;2023-03-29T07:23:36;6.20;;;2.25;;
46290;SDS011;32023;44.444;26.006;2023-03-29T07:26:06;3.25;;;2.55;;
46290;SDS011;32023;44.444;26.006;2023-03-29T07:28:40;4.75;;;2.72;;
46290;SDS011;32023;44.444;26.006;2023-03-29T07:37:01;3.60;;;2.35;;
46290;SDS011;32023;44.444;26.006;2023-03-29T07:39:44;3.60;;;1.60;;
46290;SDS011;32023;44.444;26.006;2023-03-29T07:42:15;5.50;;;2.35;;
46290;SDS011;32023;44.444;26.006;2023-03-29T07:48:42;2.72;;;1.60;;
46290;SDS011;32023;44.444;26.006;2023-03-29T07:55:14;4.63;;;1.58;;
46290;SDS011;32023;44.444;26.006;2023-03-29T07:58:07;2.15;;;1.77;;
46290;SDS011;32023;44.444;26.006;2023-03-29T08:01:03;2.70;;;1.65;;
46290;SDS011;32023;44.444;26.006;2023-03-29T08:07:42;2.13;;;1.50;;
46290;SDS011;32023;44.444;26.006;2023-03-29T08:10:37;3.45;;;1.83;;
46290;SDS011;32023;44.444;26.006;2023-03-29T08:13:29;3.75;;;2.10;;
46290;SDS011;32023;44.444;26.006;2023-03-29T08:19:38;7.13;;;1.80;;
46290;SDS011;32023;44.444;26.006;2023-03-29T08:22:48;2.67;;;1.55;;
46290;SDS011;32023;44.444;26.006;2023-03-29T08:25:46;1.90;;;1.52;;
46290;SDS011;32023;44.444;26.006;2023-03-29T08:28:28;3.22;;;1.77;;
46290;SDS011;32023;44.444;26.006;2023-03-29T08:31:17;3.33;;;1.85;;
46290;SDS011;32023;44.444;26.006;2023-03-29T08:33:46;5.72;;;1.55;;
46290;SDS011;32023;44.444;26.006;2023-03-29T08:36:13;6.53;;;1.67;;
46290;SDS011;32023;44.444;26.006;2023-03-29T08:38:43;3.90;;;1.27;;
46290;SDS011;32023;44.444;26.006;2023-03-29T08:57:14;3.00;;;1.40;;
46290;SDS011;32023;44.444;26.006;2023-03-29T09:00:11;2.40;;;1.20;;
46290;SDS011;32023;44.444;26.006;2023-03-29T09:06:28;4.63;;;1.38;;
46290;SDS011;32023;44.444;26.006;2023-03-29T09:09:41;2.25;;;1.48;;
46290;SDS011;32023;44.444;26.006;2023-03-29T09:16:17;9.45;;;1.30;;
46290;SDS011;32023;44.444;26.006;2023-03-29T09:29:46;2.33;;;1.50;;
46290;SDS011;32023;44.444;26.006;2023-03-29T09:32:40;4.13;;;1.35;;
46290;SDS011;32023;44.444;26.006;2023-03-29T09:35:58;1.98;;;1.60;;
46290;SDS011;32023;44.444;26.006;2023-03-29T09:39:02;2.88;;;1.92;;
46290;SDS011;32023;44.444;26.006;2023-03-29T09:44:35;2.10;;;1.48;;
46290;SDS011;32023;44.444;26.006;2023-03-29T09:47:34;2.85;;;1.63;;
46290;SDS011;32023;44.444;26.006;2023-03-29T09:53:18;4.47;;;2.08;;
46290;SDS011;32023;44.444;26.006;2023-03-29T09:59:09;3.17;;;1.83;;
46290;SDS011;32023;44.444;26.006;2023-03-29T10:01:49;2.55;;;1.38;;
46290;SDS011;32023;44.444;26.006;2023-03-29T10:05:23;5.40;;;1.55;;
46290;SDS011;32023;44.444;26.006;2023-03-29T10:11:50;2.10;;;1.40;;
46290;SDS011;32023;44.444;26.006;2023-03-29T10:17:57;5.97;;;1.75;;
46290;SDS011;32023;44.444;26.006;2023-03-29T10:23:31;2.63;;;1.67;;
46290;SDS011;32023;44.444;26.006;2023-03-29T10:26:30;3.40;;;1.70;;
46290;SDS011;32023;44.444;26.006;2023-03-29T10:29:23;3.25;;;1.85;;
46290;SDS011;32023;44.444;26.006;2023-03-29T10:31:50;3.10;;;1.90;;
46290;SDS011;32023;44.444;26.006;2023-03-29T10:34:18;3.47;;;2.10;;
46290;SDS011;32023;44.444;26.006;2023-03-29T10:36:57;3.67;;;1.85;;
46290;SDS011;32023;44.444;26.006;2023-03-29T10:39:40;3.00;;;1.90;;
46290;SDS011;32023;44.444;26.006;2023-03-29T10:42:07;4.35;;;1.80;;
46290;SDS011;32023;44.444;26.006;2023-03-29T10:44:42;4.45;;;1.60;;
46290;SDS011;32023;44.444;26.006;2023-03-29T10:47:17;5.95;;;2.08;;
46290;SDS011;32023;44.444;26.006;2023-03-29T10:49:54;4.13;;;1.40;;
46290;SDS011;32023;44.444;26.006;2023-03-29T10:52:40;3.53;;;1.85;;
46290;SDS011;32023;44.444;26.006;2023-03-29T10:55:21;4.57;;;1.92;;
46290;SDS011;32023;44.444;26.006;2023-03-29T11:00:59;4.03;;;1.80;;
46290;SDS011;32023;44.444;26.006;2023-03-29T11:06:35;3.20;;;1.52;;
46290;SDS011;32023;44.444;26.006;2023-03-29T11:12:58;2.55;;;2.03;;
46290;SDS011;32023;44.444;26.006;2023-03-29T11:15:56;3.58;;;2.00;;
46290;SDS011;32023;44.444;26.006;2023-03-29T11:18:47;4.78;;;2.08;;
46290;SDS011;32023;44.444;26.006;2023-03-29T11:21:23;3.53;;;1.92;;
46290;SDS011;32023;44.444;26.006;2023-03-29T11:41:34;2.53;;;1.25;;
46290;SDS011;32023;44.444;26.006;2023-03-29T11:50:16;6.15;;;1.90;;
46290;SDS011;32023;44.444;26.006;2023-03-29T11:53:18;3.75;;;1.95;;
46290;SDS011;32023;44.444;26.006;2023-03-29T11:55:55;2.78;;;1.77;;
46290;SDS011;32023;44.444;26.006;2023-03-29T12:02:11;2.85;;;1.70;;
46290;SDS011;32023;44.444;26.006;2023-03-29T12:11:07;2.80;;;1.63;;
46290;SDS011;32023;44.444;26.006;2023-03-29T12:14:22;9.90;;;1.77;;
46290;SDS011;32023;44.444;26.006;2023-03-29T12:17:08;3.47;;;1.52;;
46290;SDS011;32023;44.444;26.006;2023-03-29T12:22:55;2.08;;;1.38;;
46290;SDS011;32023;44.444;26.006;2023-03-29T12:39:52;4.20;;;1.92;;
46290;SDS011;32023;44.444;26.006;2023-03-29T12:42:27;2.17;;;1.40;;
46290;SDS011;32023;44.444;26.006;2023-03-29T12:45:11;2.83;;;1.52;;
46290;SDS011;32023;44.444;26.006;2023-03-29T12:48:14;4.93;;;1.77;;
46290;SDS011;32023;44.444;26.006;2023-03-29T12:56:09;6.45;;;1.58;;
46290;SDS011;32023;44.444;26.006;2023-03-29T13:01:30;3.25;;;1.92;;
46290;SDS011;32023;44.444;26.006;2023-03-29T13:10:02;3.50;;;2.13;;
46290;SDS011;32023;44.444;26.006;2023-03-29T13:13:20;10.88;;;1.90;;
46290;SDS011;32023;44.444;26.006;2023-03-29T13:15:51;8.68;;;1.98;;
46290;SDS011;32023;44.444;26.006;2023-03-29T13:18:37;4.78;;;2.25;;
46290;SDS011;32023;44.444;26.006;2023-03-29T13:21:28;8.02;;;2.50;;
46290;SDS011;32023;44.444;26.006;2023-03-29T13:29:51;5.10;;;1.73;;
46290;SDS011;32023;44.444;26.006;2023-03-29T13:38:52;3.05;;;1.65;;
46290;SDS011;32023;44.444;26.006;2023-03-29T13:41:27;3.45;;;1.83;;
46290;SDS011;32023;44.444;26.006;2023-03-29T13:50:18;3.53;;;1.90;;
46290;SDS011;32023;44.444;26.006;2023-03-29T13:57:02;2.25;;;1.58;;
46290;SDS011;32023;44.444;26.006;2023-03-29T14:02:48;2.05;;;1.48;;
46290;SDS011;32023;44.444;26.006;2023-03-29T14:05:34;1.85;;;1.40;;
46290;SDS011;32023;44.444;26.006;2023-03-29T14:10:55;5.30;;;1.60;;
46290;SDS011;32023;44.444;26.006;2023-03-29T14:13:25;1.88;;;1.38;;
46290;SDS011;32023;44.444;26.006;2023-03-29T14:18:32;3.78;;;1.90;;
46290;SDS011;32023;44.444;26.006;2023-03-29T14:21:01;4.22;;;1.55;;
46290;SDS011;32023;44.444;26.006;2023-03-29T14:23:32;3.00;;;1.80;;
46290;SDS011;32023;44.444;26.006;2023-03-29T14:26:08;5.90;;;2.35;;
46290;SDS011;32023;44.444;26.006;2023-03-29T14:28:45;2.53;;;1.77;;
46290;SDS011;32023;44.444;26.006;2023-03-29T14:31:17;2.50;;;1.83;;
46290;SDS011;32023;44.444;26.006;2023-03-29T14:34:04;2.97;;;1.70;;
46290;SDS011;32023;44.444;26.006;2023-03-29T14:36:43;8.68;;;1.98;;
46290;SDS011;32023;44.444;26.006;2023-03-29T14:39:16;10.52;;;4.60;;
46290;SDS011;32023;44.444;26.006;2023-03-29T14:41:48;2.83;;;1.58;;
46290;SDS011;32023;44.444;26.006;2023-03-29T14:44:16;3.80;;;2.00;;
46290;SDS011;32023;44.444;26.006;2023-03-29T14:46:47;3.90;;;2.05;;
46290;SDS011;32023;44.444;26.006;2023-03-29T14:49:15;2.92;;;1.48;;
46290;SDS011;32023;44.444;26.006;2023-03-29T14:51:43;4.25;;;1.90;;
46290;SDS011;32023;44.444;26.006;2023-03-29T14:54:27;4.07;;;1.67;;
46290;SDS011;32023;44.444;26.006;2023-03-29T14:57:01;3.65;;;1.77;;
46290;SDS011;32023;44.444;26.006;2023-03-29T14:59:35;3.70;;;2.23;;
46290;SDS011;32023;44.444;26.006;2023-03-29T15:04:53;1.88;;;1.30;;
46290;SDS011;32023;44.444;26.006;2023-03-29T15:07:21;2.88;;;1.77;;
46290;SDS011;32023;44.444;26.006;2023-03-29T15:09:49;4.38;;;2.05;;
46290;SDS011;32023;44.444;26.006;2023-03-29T15:12:17;3.38;;;1.80;;
46290;SDS011;32023;44.444;26.006;2023-03-29T15:14:52;2.55;;;1.67;;
46290;SDS011;32023;44.444;26.006;2023-03-29T15:20:03;3.42;;;1.60;;
46290;SDS011;32023;44.444;26.006;2023-03-29T15:22:38;2.78;;;1.50;;
46290;SDS011;32023;44.444;26.006;2023-03-29T15:25:17;2.65;;;1.85;;
46290;SDS011;32023;44.444;26.006;2023-03-29T15:27:49;4.75;;;2.20;;
46290;SDS011;32023;44.444;26.006;2023-03-29T15:30:19;6.25;;;2.72;;
46290;SDS011;32023;44.444;26.006;2023-03-29T15:32:52;3.58;;;2.17;;
46290;SDS011;32023;44.444;26.006;2023-03-29T15:35:20;3.10;;;2.40;;
46290;SDS011;32023;44.444;26.006;2023-03-29T15:37:48;2.95;;;2.22;;
46290;SDS011;32023;44.444;26.006;2023-03-29T15:40:16;3.92;;;2.10;;
46290;SDS011;32023;44.444;26.006;2023-03-29T15:42:50;3.97;;;1.75;;
46290;SDS011;32023;44.444;26.006;2023-03-29T15:45:18;5.45;;;2.53;;
46290;SDS011;32023;44.444;26.006;2023-03-29T15:47:47;4.90;;;2.80;;
46290;SDS011;32023;44.444;26.006;2023-03-29T15:50:18;4.65;;;2.40;;
46290;SDS011;32023;44.444;26.006;2023-03-29T15:52:45;4.00;;;2.30;;
46290;SDS011;32023;44.444;26.006;2023-03-29T15:55:11;2.83;;;1.90;;
46290;SDS011;32023;44.444;26.006;2023-03-29T15:57:38;4.30;;;2.60;;
46290;SDS011;32023;44.444;26.006;2023-03-29T16:00:13;7.50;;;2.13;;
46290;SDS011;32023;44.444;26.006;2023-03-29T16:02:41;11.63;;;2.53;;
46290;SDS011;32023;44.444;26.006;2023-03-29T16:05:08;5.05;;;2.83;;
46290;SDS011;32023;44.444;26.006;2023-03-29T16:07:37;4.03;;;2.42;;
46290;SDS011;32023;44.444;26.006;2023-03-29T16:10:04;5.55;;;2.78;;
46290;SDS011;32023;44.444;26.006;2023-03-29T16:12:34;3.22;;;2.53;;
46290;SDS011;32023;44.444;26.006;2023-03-29T16:15:17;4.65;;;2.70;;
46290;SDS011;32023;44.444;26.006;2023-03-29T16:17:47;4.25;;;2.80;;
46290;SDS011;32023;44.444;26.006;2023-03-29T16:20:16;6.32;;;2.50;;
46290;SDS011;32023;44.444;26.006;2023-03-29T16:22:47;5.70;;;2.95;;
46290;SDS011;32023;44.444;26.006;2023-03-29T16:25:20;5.53;;;3.08;;
46290;SDS011;32023;44.444;26.006;2023-03-29T16:30:21;5.32;;;3.17;;
46290;SDS011;32023;44.444;26.006;2023-03-29T16:32:48;4.10;;;2.60;;
46290;SDS011;32023;44.444;26.006;2023-03-29T16:35:26;6.68;;;3.00;;
46290;SDS011;32023;44.444;26.006;2023-03-29T16:37:54;7.50;;;3.03;;
46290;SDS011;32023;44.444;26.006;2023-03-29T16:40:23;10.05;;;3.65;;
46290;SDS011;32023;44.444;26.006;2023-03-29T16:42:58;5.82;;;3.40;;
46290;SDS011;32023;44.444;26.006;2023-03-29T16:45:27;8.57;;;3.75;;
46290;SDS011;32023;44.444;26.006;2023-03-29T16:48:19;6.18;;;3.40;;
46290;SDS011;32023;44.444;26.006;2023-03-29T16:53:27;13.88;;;6.15;;
46290;SDS011;32023;44.444;26.006;2023-03-29T16:55:57;13.57;;;6.13;;
46290;SDS011;32023;44.444;26.006;2023-03-29T16:58:26;16.75;;;6.60;;
46290;SDS011;32023;44.444;26.006;2023-03-29T17:01:10;11.57;;;5.80;;
46290;SDS011;32023;44.444;26.006;2023-03-29T17:03:38;10.73;;;5.47;;
46290;SDS011;32023;44.444;26.006;2023-03-29T17:06:05;11.18;;;4.18;;
46290;SDS011;32023;44.444;26.006;2023-03-29T17:08:33;15.75;;;5.70;;
46290;SDS011;32023;44.444;26.006;2023-03-29T17:11:00;9.40;;;4.97;;
46290;SDS011;32023;44.444;26.006;2023-03-29T17:13:27;14.55;;;5.65;;
46290;SDS011;32023;44.444;26.006;2023-03-29T17:15:54;10.93;;;5.57;;
46290;SDS011;32023;44.444;26.006;2023-03-29T17:18:29;17.58;;;6.95;;
46290;SDS011;32023;44.444;26.006;2023-03-29T17:20:58;13.70;;;5.93;;
46290;SDS011;32023;44.444;26.006;2023-03-29T17:23:25;21.70;;;9.25;;
46290;SDS011;32023;44.444;26.006;2023-03-29T17:25:55;22.77;;;9.73;;
46290;SDS011;32023;44.444;26.006;2023-03-29T17:28:24;12.20;;;5.53;;
46290;SDS011;32023;44.444;26.006;2023-03-29T17:30:50;14.48;;;7.70;;
46290;SDS011;32023;44.444;26.006;2023-03-29T17:33:17;17.48;;;8.32;;
46290;SDS011;32023;44.444;26.006;2023-03-29T17:35:49;13.13;;;6.90;;
46290;SDS011;32023;44.444;26.006;2023-03-29T17:38:16;20.23;;;10.10;;
46290;SDS011;32023;44.444;26.006;2023-03-29T17:40:50;34.35;;;17.38;;
46290;SDS011;32023;44.444;26.006;2023-03-29T17:43:17;79.95;;;28.95;;
46290;SDS011;32023;44.444;26.006;2023-03-29T17:46:09;49.33;;;21.48;;
46290;SDS011;32023;44.444;26.006;2023-03-29T17:48:40;26.92;;;13.30;;
46290;SDS011;32023;44.444;26.006;2023-03-29T17:51:06;35.75;;;18.60;;
46290;SDS011;32023;44.444;26.006;2023-03-29T17:53:33;48.30;;;21.55;;
46290;SDS011;32023;44.444;26.006;2023-03-29T17:56:08;35.65;;;14.85;;
46290;SDS011;32023;44.444;26.006;2023-03-29T17:58:40;38.45;;;15.18;;
46290;SDS011;32023;44.444;26.006;2023-03-29T18:01:10;42.72;;;16.52;;
46290;SDS011;32023;44.444;26.006;2023-03-29T18:03:41;38.08;;;18.42;;
46290;SDS011;32023;44.444;26.006;2023-03-29T18:06:10;68.63;;;28.80;;
46290;SDS011;32023;44.444;26.006;2023-03-29T18:08:37;42.03;;;17.80;;
46290;SDS011;32023;44.444;26.006;2023-03-29T18:11:06;36.00;;;16.00;;
46290;SDS011;32023;44.444;26.006;2023-03-29T18:13:36;76.50;;;29.98;;
46290;SDS011;32023;44.444;26.006;2023-03-29T18:16:06;73.63;;;30.48;;
46290;SDS011;32023;44.444;26.006;2023-03-29T18:18:33;38.00;;;19.20;;
46290;SDS011;32023;44.444;26.006;2023-03-29T18:21:00;52.90;;;26.77;;
46290;SDS011;32023;44.444;26.006;2023-03-29T18:23:31;61.67;;;32.63;;
46290;SDS011;32023;44.444;26.006;2023-03-29T18:26:02;42.00;;;22.75;;
46290;SDS011;32023;44.444;26.006;2023-03-29T18:31:01;18.63;;;10.15;;
46290;SDS011;32023;44.444;26.006;2023-03-29T18:33:30;12.10;;;6.35;;
46290;SDS011;32023;44.444;26.006;2023-03-29T18:36:00;18.50;;;5.78;;
46290;SDS011;32023;44.444;26.006;2023-03-29T18:38:28;14.93;;;5.80;;
46290;SDS011;32023;44.444;26.006;2023-03-29T18:40:59;11.05;;;5.65;;
46290;SDS011;32023;44.444;26.006;2023-03-29T18:43:27;18.80;;;7.60;;
46290;SDS011;32023;44.444;26.006;2023-03-29T18:45:56;11.35;;;6.35;;
46290;SDS011;32023;44.444;26.006;2023-03-29T18:48:26;11.45;;;6.57;;
46290;SDS011;32023;44.444;26.006;2023-03-29T18:50:56;18.33;;;6.60;;
46290;SDS011;32023;44.444;26.006;2023-03-29T18:53:22;11.25;;;5.53;;
46290;SDS011;32023;44.444;26.006;2023-03-29T18:55:50;11.63;;;6.40;;
46290;SDS011;32023;44.444;26.006;2023-03-29T18:58:19;15.07;;;5.90;;
46290;SDS011;32023;44.444;26.006;2023-03-29T19:00:48;9.80;;;5.22;;
46290;SDS011;32023;44.444;26.006;2023-03-29T19:03:15;11.95;;;5.72;;
46290;SDS011;32023;44.444;26.006;2023-03-29T19:05:43;12.52;;;5.53;;
46290;SDS011;32023;44.444;26.006;2023-03-29T19:08:09;13.52;;;5.95;;
46290;SDS011;32023;44.444;26.006;2023-03-29T19:10:37;9.38;;;4.90;;
46290;SDS011;32023;44.444;26.006;2023-03-29T19:13:05;8.85;;;5.85;;
46290;SDS011;32023;44.444;26.006;2023-03-29T19:15:33;8.85;;;5.13;;
46290;SDS011;32023;44.444;26.006;2023-03-29T19:17:59;16.88;;;5.47;;
46290;SDS011;32023;44.444;26.006;2023-03-29T19:20:26;11.50;;;5.45;;
46290;SDS011;32023;44.444;26.006;2023-03-29T19:22:58;12.10;;;5.60;;
46290;SDS011;32023;44.444;26.006;2023-03-29T19:25:25;10.38;;;6.38;;
46290;SDS011;32023;44.444;26.006;2023-03-29T19:27:55;14.52;;;5.53;;
46290;SDS011;32023;44.444;26.006;2023-03-29T19:30:28;12.93;;;5.80;;
46290;SDS011;32023;44.444;26.006;2023-03-29T19:32:55;16.73;;;8.10;;
46290;SDS011;32023;44.444;26.006;2023-03-29T19:35:21;18.52;;;8.55;;
46290;SDS011;32023;44.444;26.006;2023-03-29T19:37:48;37.53;;;10.80;;
46290;SDS011;32023;44.444;26.006;2023-03-29T19:40:17;39.58;;;15.25;;
46290;SDS011;32023;44.444;26.006;2023-03-29T19:42:44;42.80;;;15.45;;
46290;SDS011;32023;44.444;26.006;2023-03-29T19:45:11;16.20;;;7.47;;
46290;SDS011;32023;44.444;26.006;2023-03-29T19:47:44;27.45;;;10.38;;
46290;SDS011;32023;44.444;26.006;2023-03-29T19:50:12;21.08;;;9.32;;
46290;SDS011;32023;44.444;26.006;2023-03-29T19:52:38;29.92;;;12.32;;
46290;SDS011;32023;44.444;26.006;2023-03-29T19:55:07;19.95;;;8.73;;
46290;SDS011;32023;44.444;26.006;2023-03-29T20:00:24;22.02;;;8.15;;
46290;SDS011;32023;44.444;26.006;2023-03-29T20:02:51;30.83;;;12.27;;
46290;SDS011;32023;44.444;26.006;2023-03-29T20:05:19;23.70;;;9.45;;
46290;SDS011;32023;44.444;26.006;2023-03-29T20:11:19;19.60;;;9.93;;
46290;SDS011;32023;44.444;26.006;2023-03-29T20:13:54;18.83;;;9.65;;
46290;SDS011;32023;44.444;26.006;2023-03-29T20:16:21;19.73;;;8.75;;
46290;SDS011;32023;44.444;26.006;2023-03-29T20:18:59;25.20;;;11.68;;
46290;SDS011;32023;44.444;26.006;2023-03-29T20:21:35;26.55;;;10.60;;
46290;SDS011;32023;44.444;26.006;2023-03-29T20:26:40;20.02;;;9.50;;
46290;SDS011;32023;44.444;26.006;2023-03-29T20:29:20;19.73;;;9.95;;
46290;SDS011;32023;44.444;26.006;2023-03-29T20:31:49;19.02;;;9.23;;
46290;SDS011;32023;44.444;26.006;2023-03-29T20:34:21;19.75;;;9.27;;
46290;SDS011;32023;44.444;26.006;2023-03-29T20:36:48;15.88;;;8.70;;
46290;SDS011;32023;44.444;26.006;2023-03-29T20:39:23;18.60;;;8.68;;
46290;SDS011;32023;44.444;26.006;2023-03-29T20:41:55;15.50;;;9.10;;